Time;durP1;ratioP1;P1;durP2;ratioP2;P2;SDS_P1;SDS_P2;PMS_P1;PMS_P2;Temp;Humidity;BMP_temperature;BMP_pressure;BME280_temperature;BME280_humidity;BME280_pressure;Samples;Min_cycle;Max_cycle;Signal;HPM_P1;HPM_P2
2022/01/02 00:00:07;;;;;;;;;14.75;10.00;;;;;13.31;72.19;101746.28;5072176;27;45813;-75
2022/01/02 00:02:34;;;;;;;;;10.00;9.00;;;;;13.27;72.10;101741.13;5068965;27;45395;-75
2022/01/02 00:05:06;;;;;;;;;11.50;10.75;;;;;13.26;73.09;101728.72;5070741;27;45692;-74
2022/01/02 00:07:36;;;;;;;;;13.75;11.50;;;;;13.23;72.44;101721.69;5064515;27;45518;-74
2022/01/02 00:10:04;;;;;;;;;9.75;7.50;;;;;13.17;72.89;101705.91;5072115;27;45487;-75
2022/01/02 00:12:32;;;;;;;;;8.25;7.75;;;;;13.19;72.38;101704.09;5067821;27;45684;-75
2022/01/02 00:14:58;;;;;;;;;9.00;9.00;;;;;13.23;72.54;101721.69;5052800;28;45574;-75
2022/01/02 00:17:24;;;;;;;;;11.00;7.75;;;;;13.03;72.74;101674.47;5069054;27;45479;-75
2022/01/02 00:19:56;;;;;;;;;10.00;8.00;;;;;13.22;72.52;101700.47;5054574;27;47988;-75
2022/01/02 00:22:33;;;;;;;;;10.25;8.00;;;;;13.11;72.47;101682.19;5070095;27;45541;-73
2022/01/02 00:24:59;;;;;;;;;10.50;9.75;;;;;13.20;72.57;101703.16;5073541;27;45403;-74
2022/01/02 00:27:27;;;;;;;;;11.25;9.00;;;;;13.21;72.50;101691.66;5072229;27;45419;-74
2022/01/02 00:29:53;;;;;;;;;10.00;8.00;;;;;13.19;72.52;101699.66;5069755;27;45497;-74
2022/01/02 00:32:20;;;;;;;;;10.00;8.25;;;;;13.26;72.90;101697.69;5073489;27;45573;-74
2022/01/02 00:34:51;;;;;;;;;9.75;9.00;;;;;13.26;73.35;101697.69;5074435;27;45380;-74
2022/01/02 00:37:18;;;;;;;;;11.50;8.00;;;;;13.28;73.00;101690.56;5072039;27;45508;-75
2022/01/02 00:39:43;;;;;;;;;12.25;9.25;;;;;13.28;73.20;101687.03;5073772;27;46023;-74
2022/01/02 00:42:25;;;;;;;;;11.25;9.00;;;;;13.28;72.97;101679.94;5076835;27;47026;-74
2022/01/02 00:45:26;;;;;;;;;9.50;7.50;;;;;13.30;73.19;101666.59;5075247;27;45623;-74
2022/01/02 00:48:29;;;;;;;;;8.50;8.00;;;;;13.29;73.31;101646.22;5070703;27;45735;-74
2022/01/02 00:51:08;;;;;;;;;10.75;8.00;;;;;13.14;73.24;101623.63;5043977;28;46198;-74
2022/01/02 00:53:35;;;;;;;;;10.00;7.75;;;;;13.30;73.40;101648.88;5072943;27;45628;-74
2022/01/02 00:56:02;;;;;;;;;8.25;7.25;;;;;13.31;73.44;101631.97;5074339;28;45959;-74
2022/01/02 00:58:58;;;;;;;;;15.50;8.00;;;;;13.27;73.12;101640.97;5068481;27;45562;-74
2022/01/02 01:01:27;;;;;;;;;10.00;8.25;;;;;13.22;73.33;101634.91;5074751;27;45598;-75
2022/01/02 01:03:55;;;;;;;;;13.00;8.50;;;;;13.28;72.93;101647.16;5072738;27;45470;-74
2022/01/02 01:06:25;;;;;;;;;15.75;11.00;;;;;13.08;72.59;101610.53;5057256;27;45676;-74
2022/01/02 01:08:56;;;;;;;;;14.75;11.25;;;;;13.24;72.71;101650.81;5078316;27;45886;-75
2022/01/02 01:11:26;;;;;;;;;10.50;8.00;;;;;13.20;72.73;101642.03;5054524;27;46386;-75
2022/01/02 01:13:52;;;;;;;;;13.00;11.00;;;;;13.11;72.50;101619.28;5073885;28;45628;-74
2022/01/02 01:16:18;;;;;;;;;13.75;10.25;;;;;13.11;72.46;101616.59;5055412;28;45533;-74
2022/01/02 01:18:44;;;;;;;;;15.00;13.25;;;;;12.92;72.25;101580.91;5072585;27;45427;-74
2022/01/02 01:21:10;;;;;;;;;11.00;11.00;;;;;13.11;72.36;101621.94;5068722;27;45653;-74
2022/01/02 01:23:35;;;;;;;;;13.25;11.25;;;;;13.00;72.63;101600.16;5074223;27;45458;-75
2022/01/02 01:26:06;;;;;;;;;10.75;10.75;;;;;13.02;72.61;101616.03;5074135;27;45530;-74
2022/01/02 01:28:31;;;;;;;;;11.50;11.50;;;;;12.98;72.40;101595.81;5074558;27;45564;-74
2022/01/02 01:30:57;;;;;;;;;10.00;10.00;;;;;13.07;72.29;101622.94;5069674;28;45959;-74
2022/01/02 01:33:22;;;;;;;;;15.25;11.50;;;;;13.04;73.13;101627.50;5075885;27;46856;-74
2022/01/02 01:35:48;;;;;;;;;13.50;12.00;;;;;12.90;72.72;101594.22;5073048;27;45794;-74
2022/01/02 01:38:13;;;;;;;;;13.25;12.25;;;;;12.87;72.57;101606.75;5058885;28;45473;-74
2022/01/02 01:41:00;;;;;;;;;12.00;11.00;;;;;12.82;72.87;101596.25;5070503;28;46011;-74
2022/01/02 01:43:39;;;;;;;;;15.00;12.50;;;;;12.96;72.93;101627.72;5071135;28;45435;-74
2022/01/02 01:46:05;;;;;;;;;11.00;10.00;;;;;12.84;73.17;101618.31;5071309;28;45586;-74
2022/01/02 01:48:30;;;;;;;;;15.00;11.00;;;;;12.52;72.76;101550.22;5072956;27;45494;-74
2022/01/02 01:50:55;;;;;;;;;10.75;10.00;;;;;12.92;73.78;101634.03;5053830;28;46152;-74
2022/01/02 01:53:21;;;;;;;;;16.75;12.25;;;;;12.60;73.18;101566.81;5073976;27;45395;-74
2022/01/02 01:55:46;;;;;;;;;13.25;10.50;;;;;12.92;73.54;101594.19;5072542;27;45824;-74
2022/01/02 01:58:12;;;;;;;;;11.00;11.00;;;;;12.92;73.03;101604.81;5072719;27;45703;-74
2022/01/02 02:00:38;;;;;;;;;17.25;12.75;;;;;12.86;73.36;101594.38;5057885;27;46575;-75
2022/01/02 02:03:03;;;;;;;;;15.00;12.25;;;;;12.73;73.01;101575.25;5072129;28;45463;-75
2022/01/02 02:05:29;;;;;;;;;18.00;10.50;;;;;12.82;73.34;101590.94;5072219;27;45424;-75
2022/01/02 02:07:55;;;;;;;;;19.50;12.25;;;;;12.83;73.64;101591.81;5071401;28;45548;-74
2022/01/02 02:10:28;;;;;;;;;17.25;15.75;;;;;12.82;73.45;101595.38;5071437;27;45834;-75
2022/01/02 02:12:56;;;;;;;;;13.75;13.25;;;;;12.71;73.87;101588.59;5073149;28;45598;-75
2022/01/02 02:15:22;;;;;;;;;12.25;12.25;;;;;12.72;73.67;101576.19;5071311;28;45423;-74
2022/01/02 02:17:50;;;;;;;;;16.50;10.50;;;;;12.72;73.80;101570.88;5049747;28;45387;-75
2022/01/02 02:20:26;;;;;;;;;11.50;10.75;;;;;12.65;73.84;101556.06;5068245;28;46688;-75
2022/01/02 02:22:55;;;;;;;;;16.75;13.50;;;;;12.64;73.72;101551.66;5070302;28;46208;-75
2022/01/02 02:25:27;;;;;;;;;15.75;10.50;;;;;12.43;74.61;101497.41;5071148;28;45860;-74
2022/01/02 02:27:54;;;;;;;;;13.25;13.00;;;;;12.64;73.96;101541.88;5070736;27;45451;-75
2022/01/02 02:30:20;;;;;;;;;13.50;11.75;;;;;12.35;73.74;101500.28;5066944;27;45629;-75
2022/01/02 02:32:46;;;;;;;;;21.50;15.00;;;;;12.62;74.63;101545.53;5068187;27;45740;-75
2022/01/02 02:35:14;;;;;;;;;13.50;11.25;;;;;12.59;73.92;101535.88;5070614;28;45558;-74
2022/01/02 02:37:44;;;;;;;;;16.75;12.25;;;;;12.59;73.99;101537.63;5069360;27;45604;-74
2022/01/02 02:40:13;;;;;;;;;23.25;14.75;;;;;12.30;74.92;101485.44;5066347;27;46820;-74
2022/01/02 02:51:09;;;;;;;;;14.25;14.25;;;;;12.46;75.08;101499.97;5070764;27;45858;-75
2022/01/02 02:53:42;;;;;;;;;15.00;10.25;;;;;12.56;74.31;101519.13;5069728;27;45586;-75
2022/01/02 02:56:40;;;;;;;;;17.00;14.00;;;;;12.57;74.63;101529.72;5051867;28;45503;-75
2022/01/02 02:59:06;;;;;;;;;5.00;5.00;;;;;12.52;74.54;101517.50;5070453;28;45513;-74
2022/01/02 03:01:32;;;;;;;;;13.00;12.50;;;;;12.36;74.48;101480.78;5070707;27;45515;-74
2022/01/02 03:03:57;;;;;;;;;14.50;14.00;;;;;12.46;75.22;101514.09;5053483;28;45412;-74
2022/01/02 03:06:23;;;;;;;;;14.50;12.25;;;;;12.47;74.88;101507.91;5072760;28;45678;-74
2022/01/02 03:08:49;;;;;;;;;17.25;12.50;;;;;12.48;74.95;101498.16;5072909;27;45418;-74
2022/01/02 03:11:19;;;;;;;;;18.75;15.00;;;;;12.47;74.76;101502.59;5070821;28;46568;-74
2022/01/02 03:13:46;;;;;;;;;16.25;14.75;;;;;12.47;75.00;101502.59;5069630;27;45714;-74
2022/01/02 03:16:12;;;;;;;;;9.25;7.00;;;;;12.41;75.10;101485.94;5070646;27;45395;-74
2022/01/02 03:18:38;;;;;;;;;17.00;12.00;;;;;12.47;75.00;101494.63;5088004;27;45411;-75
2022/01/02 03:21:04;;;;;;;;;15.25;11.75;;;;;12.46;75.23;101497.31;5071439;27;46408;-74
2022/01/02 03:23:30;;;;;;;;;14.75;12.75;;;;;12.45;75.04;101474.34;5072598;27;45470;-75
2022/01/02 03:25:55;;;;;;;;;17.75;13.75;;;;;12.45;75.13;101469.03;5071480;27;45454;-75
2022/01/02 03:28:21;;;;;;;;;13.25;9.75;;;;;12.46;75.44;101465.44;5071080;28;45599;-75
2022/01/02 03:30:46;;;;;;;;;19.75;14.25;;;;;12.37;74.75;101439.19;5071227;27;46623;-75
2022/01/02 03:33:12;;;;;;;;;14.75;14.75;;;;;12.46;74.91;101450.38;5073909;27;45804;-75
2022/01/02 03:35:38;;;;;;;;;12.00;10.50;;;;;12.35;75.43;101422.44;5074078;27;45506;-74
2022/01/02 03:38:04;;;;;;;;;15.00;11.00;;;;;12.46;75.17;101444.22;5055828;28;45598;-74
2022/01/02 03:40:29;;;;;;;;;17.50;12.00;;;;;12.43;75.21;101433.69;5070701;28;45677;-75
2022/01/02 03:42:54;;;;;;;;;16.00;13.50;;;;;12.33;75.06;101405.72;5071027;28;45624;-75
2022/01/02 03:45:20;;;;;;;;;13.25;12.50;;;;;12.33;75.32;101421.63;5069947;28;45579;-74
2022/01/02 03:47:45;;;;;;;;;15.75;12.50;;;;;12.39;75.16;101434.72;5071398;27;45522;-75
2022/01/02 03:50:11;;;;;;;;;13.50;11.50;;;;;12.34;74.77;101436.63;5070939;28;46220;-74
2022/01/02 03:52:36;;;;;;;;;12.25;12.25;;;;;12.20;75.40;101414.03;5070040;28;45578;-74
2022/01/02 03:55:03;;;;;;;;;15.25;14.25;;;;;12.33;75.48;101416.31;5069880;28;45488;-74
2022/01/02 03:57:28;;;;;;;;;12.00;11.75;;;;;12.29;75.86;101420.84;5059048;28;45588;-74
2022/01/02 03:59:54;;;;;;;;;14.50;14.50;;;;;12.16;75.51;101401.78;5049847;28;47094;-74
2022/01/02 04:02:19;;;;;;;;;13.50;12.00;;;;;12.19;75.15;101399.03;5066722;27;45477;-74
2022/01/02 04:04:44;;;;;;;;;12.25;12.25;;;;;12.27;75.08;101414.72;5072302;27;45521;-74
2022/01/02 04:07:11;;;;;;;;;15.50;13.00;;;;;12.26;75.20;101420.94;5052823;28;45919;-74
2022/01/02 04:09:36;;;;;;;;;15.00;12.50;;;;;12.16;75.76;101400.91;5070649;28;45768;-74
2022/01/02 04:12:02;;;;;;;;;15.75;15.25;;;;;12.08;75.81;101373.72;5070540;28;45458;-74
2022/01/02 04:14:27;;;;;;;;;14.50;14.00;;;;;12.15;75.42;101389.44;5051855;28;45590;-74
2022/01/02 04:16:52;;;;;;;;;11.00;9.75;;;;;12.09;75.55;101386.97;5070310;28;45541;-74
2022/01/02 04:19:17;;;;;;;;;14.00;10.25;;;;;12.25;75.75;101417.41;5069378;28;45613;-74
2022/01/02 04:21:43;;;;;;;;;14.50;12.75;;;;;12.20;75.91;101411.38;5061858;28;46831;-74
2022/01/02 04:24:08;;;;;;;;;13.75;11.25;;;;;12.22;75.97;101408.69;5071927;27;45614;-74
2022/01/02 04:26:34;;;;;;;;;15.50;10.25;;;;;12.27;75.82;101397.00;5067896;27;45412;-74
2022/01/02 04:28:59;;;;;;;;;8.75;8.25;;;;;12.16;75.11;101353.16;5070265;27;46228;-74
2022/01/02 04:31:25;;;;;;;;;13.25;10.25;;;;;11.85;75.88;101281.56;5070576;27;45574;-74
2022/01/02 04:33:51;;;;;;;;;14.50;13.00;;;;;12.20;75.74;101313.19;5070919;27;45607;-74
2022/01/02 04:36:16;;;;;;;;;10.75;10.75;;;;;12.11;75.89;101294.03;5073789;27;45606;-74
2022/01/02 04:38:42;;;;;;;;;13.75;10.00;;;;;12.25;75.34;101299.78;5071361;28;45547;-75
2022/01/02 04:41:08;;;;;;;;;11.75;10.50;;;;;12.24;75.91;101272.38;5073645;27;45491;-74
2022/01/02 04:43:34;;;;;;;;;15.25;13.25;;;;;12.17;75.31;101262.00;5053787;28;45590;-74
2022/01/02 04:45:59;;;;;;;;;18.50;15.25;;;;;12.19;75.29;101266.34;5072126;28;45272;-74
2022/01/02 04:48:25;;;;;;;;;11.00;11.00;;;;;12.16;75.17;101258.50;5072421;28;45518;-74
2022/01/02 04:50:50;;;;;;;;;12.75;10.75;;;;;11.95;74.91;101217.59;5072339;28;45407;-74
2022/01/02 04:53:16;;;;;;;;;11.25;10.00;;;;;12.12;75.02;101232.09;5071659;27;45419;-75
2022/01/02 04:55:41;;;;;;;;;9.75;8.50;;;;;12.15;74.85;101243.50;5071998;28;45484;-75
2022/01/02 04:58:07;;;;;;;;;15.75;9.75;;;;;12.14;74.67;101255.00;5071768;28;45926;-75
2022/01/02 05:00:32;;;;;;;;;10.25;9.25;;;;;12.14;74.88;101252.34;5073709;28;45321;-75
2022/01/02 05:02:58;;;;;;;;;16.00;12.75;;;;;11.89;75.15;101211.66;5072254;28;45437;-75
2022/01/02 05:05:23;;;;;;;;;9.75;8.25;;;;;12.01;74.96;101230.66;5070721;28;45562;-75
2022/01/02 05:07:48;;;;;;;;;8.50;8.50;;;;;12.14;74.85;101257.66;5071133;28;45558;-75
2022/01/02 05:10:14;;;;;;;;;13.25;9.00;;;;;12.16;75.11;101253.19;5053682;28;47823;-74
2022/01/02 05:12:39;;;;;;;;;9.50;8.75;;;;;12.12;74.55;101245.34;5073643;28;46238;-75
2022/01/02 05:15:06;;;;;;;;;13.75;9.00;;;;;11.76;75.23;101192.56;5072186;28;45319;-74
2022/01/02 05:17:31;;;;;;;;;14.50;14.25;;;;;12.15;74.81;101261.22;5072259;28;47115;-75
2022/01/02 05:19:57;;;;;;;;;13.75;12.50;;;;;12.10;74.82;101258.69;5075555;28;45446;-74
2022/01/02 05:22:22;;;;;;;;;17.50;9.75;;;;;12.18;74.78;101255.81;5074985;27;45389;-75
2022/01/02 05:24:48;;;;;;;;;16.25;11.25;;;;;12.01;74.51;101233.31;5075071;28;45496;-75
2022/01/02 05:27:13;;;;;;;;;13.50;9.50;;;;;12.10;74.59;101244.56;5058764;28;46148;-75
2022/01/02 05:29:39;;;;;;;;;9.75;8.75;;;;;12.17;74.82;101254.91;5074664;28;45416;-75
2022/01/02 05:32:04;;;;;;;;;12.00;10.25;;;;;12.08;74.90;101227.81;5074366;28;45505;-75
2022/01/02 05:34:30;;;;;;;;;11.50;9.50;;;;;12.18;74.61;101255.81;5075398;28;45481;-75
2022/01/02 05:36:55;;;;;;;;;15.75;12.00;;;;;12.15;74.05;101262.06;5074449;28;46121;-74
2022/01/02 05:39:21;;;;;;;;;13.00;11.50;;;;;12.13;74.01;101261.25;5077173;28;45345;-75
2022/01/02 05:41:48;;;;;;;;;11.50;10.50;;;;;11.98;74.23;101216.66;5074949;28;45389;-74
2022/01/02 05:44:14;;;;;;;;;9.75;9.75;;;;;12.01;73.91;101216.53;5073543;28;45503;-74
2022/01/02 05:46:40;;;;;;;;;12.25;9.75;;;;;12.08;73.94;101203.94;5074750;28;46091;-75
2022/01/02 05:49:06;;;;;;;;;11.75;11.75;;;;;12.01;74.05;101185.56;5074961;28;45328;-74
2022/01/02 05:51:31;;;;;;;;;9.00;6.50;;;;;11.67;73.83;101135.38;5074689;28;45506;-74
2022/01/02 05:53:56;;;;;;;;;12.25;10.00;;;;;12.01;73.82;101217.41;5054893;28;45576;-74
2022/01/02 05:56:22;;;;;;;;;8.50;7.75;;;;;11.87;74.09;101211.69;5055716;28;48195;-74
2022/01/02 05:58:47;;;;;;;;;14.25;12.50;;;;;11.87;73.99;101234.69;5076942;27;45493;-74
2022/01/02 06:01:12;;;;;;;;;16.25;12.25;;;;;11.70;73.86;101220.13;5075305;27;45430;-74
2022/01/02 06:03:38;;;;;;;;;10.00;10.00;;;;;11.90;74.11;101238.09;5058403;28;45499;-74
2022/01/02 06:06:04;;;;;;;;;14.00;12.75;;;;;11.90;74.62;101242.53;5075827;27;45831;-74
2022/01/02 06:08:29;;;;;;;;;12.00;9.00;;;;;11.86;74.10;101228.50;5072024;27;45419;-74
2022/01/02 06:10:55;;;;;;;;;14.00;11.75;;;;;11.75;74.08;101207.59;5075049;28;45320;-74
2022/01/02 06:13:20;;;;;;;;;10.00;10.00;;;;;11.85;74.59;101215.25;5074638;28;45305;-75
2022/01/02 06:15:46;;;;;;;;;16.25;11.75;;;;;11.91;73.81;101212.44;5075255;27;45484;-75
2022/01/02 06:18:11;;;;;;;;;8.50;8.50;;;;;11.84;73.84;101209.09;5074649;28;45469;-74
2022/01/02 06:20:37;;;;;;;;;10.75;10.75;;;;;11.87;73.41;101216.97;5074354;28;45562;-75
2022/01/02 06:23:02;;;;;;;;;11.50;11.50;;;;;11.73;73.44;101212.06;5074183;27;45400;-74
2022/01/02 06:25:27;;;;;;;;;10.25;9.75;;;;;11.64;73.59;101208.84;5073917;28;45950;-75
2022/01/02 06:27:53;;;;;;;;;13.75;11.50;;;;;11.69;73.40;101226.34;5074939;28;45511;-75
2022/01/02 06:30:18;;;;;;;;;9.75;9.75;;;;;11.65;73.92;101224.72;5074619;28;45242;-74
2022/01/02 06:32:44;;;;;;;;;12.00;9.00;;;;;11.68;73.84;101229.06;5074107;28;45514;-74
2022/01/02 06:35:10;;;;;;;;;13.75;13.25;;;;;11.59;73.57;101236.38;5073798;28;45569;-75
2022/01/02 06:37:36;;;;;;;;;14.50;14.25;;;;;11.65;74.04;101259.19;5074209;28;45507;-75
2022/01/02 06:40:03;;;;;;;;;12.00;8.75;;;;;11.64;73.55;101272.47;5073997;28;45360;-75
2022/01/02 06:42:28;;;;;;;;;11.50;8.00;;;;;11.59;73.89;101264.69;5076497;28;45410;-75
2022/01/02 06:44:54;;;;;;;;;13.25;10.00;;;;;11.37;74.12;101222.91;5072600;28;45809;-75
2022/01/02 06:47:19;;;;;;;;;9.50;8.50;;;;;11.41;73.82;101217.50;5074013;28;45457;-75
2022/01/02 06:49:44;;;;;;;;;16.25;13.00;;;;;11.58;74.33;101237.28;5073125;28;45620;-74
2022/01/02 06:52:10;;;;;;;;;13.25;11.00;;;;;11.60;74.43;101243.41;5073764;27;45465;-75
2022/01/02 06:54:37;;;;;;;;;15.50;12.75;;;;;11.46;74.94;101237.66;5086732;27;48028;-75
2022/01/02 06:57:02;;;;;;;;;15.75;12.00;;;;;11.54;75.17;101251.56;5073999;27;45364;-75
2022/01/02 06:59:28;;;;;;;;;14.50;11.50;;;;;11.49;74.58;101247.31;5074030;28;45324;-75
2022/01/02 07:01:53;;;;;;;;;16.75;14.00;;;;;11.35;74.49;101224.75;5073929;28;45413;-75
2022/01/02 07:04:18;;;;;;;;;3.25;1.00;;;;;11.63;74.64;101265.44;5074565;28;46315;-75
2022/01/02 07:06:44;;;;;;;;;12.25;10.50;;;;;11.50;74.36;101241.97;5056868;28;45583;-75
2022/01/02 07:09:09;;;;;;;;;19.25;16.00;;;;;11.56;74.98;101243.56;5074863;28;45440;-75
2022/01/02 07:11:34;;;;;;;;;12.75;11.50;;;;;11.64;74.12;101254.78;5072426;28;45465;-75
2022/01/02 07:14:00;;;;;;;;;16.00;14.25;;;;;11.53;74.37;101219.78;5066446;28;47708;-75
2022/01/02 07:16:25;;;;;;;;;23.00;16.25;;;;;11.67;74.53;101232.63;5074216;27;45522;-75
2022/01/02 07:18:50;;;;;;;;;16.75;14.75;;;;;11.67;73.93;101230.81;5073286;28;46240;-75
2022/01/02 07:21:17;;;;;;;;;18.75;13.75;;;;;11.39;74.03;101183.13;5052882;28;45519;-75
2022/01/02 07:23:43;;;;;;;;;15.25;14.25;;;;;11.71;74.33;101226.31;5068757;28;46355;-75
2022/01/02 07:26:08;;;;;;;;;15.25;13.75;;;;;11.73;73.71;101227.13;5073190;28;45599;-75
2022/01/02 07:28:34;;;;;;;;;16.00;12.25;;;;;11.73;73.39;101229.78;5073768;28;45491;-75
2022/01/02 07:31:00;;;;;;;;;20.50;14.75;;;;;11.66;73.71;101218.50;5071379;28;46079;-74
2022/01/02 07:33:25;;;;;;;;;12.75;12.75;;;;;11.64;72.97;101222.97;5075063;28;46241;-74
2022/01/02 07:35:51;;;;;;;;;16.00;15.50;;;;;11.32;73.38;101171.84;5072781;27;45454;-74
2022/01/02 07:38:16;;;;;;;;;15.50;13.50;;;;;11.61;72.98;101220.41;5075095;27;49634;-74
2022/01/02 07:40:42;;;;;;;;;18.25;14.75;;;;;11.70;73.80;101238.69;5072822;28;45250;-74
2022/01/02 07:43:07;;;;;;;;;15.00;15.00;;;;;11.48;73.40;101203.16;5088443;27;46057;-74
2022/01/02 07:45:32;;;;;;;;;15.75;13.25;;;;;11.68;73.15;101252.94;5075126;28;45357;-75
2022/01/02 07:47:58;;;;;;;;;14.75;12.00;;;;;11.52;73.39;101233.94;5072447;28;45440;-75
2022/01/02 07:50:24;;;;;;;;;13.25;12.75;;;;;11.64;73.69;101249.47;5072870;27;45369;-75
2022/01/02 07:52:52;;;;;;;;;12.75;11.00;;;;;11.62;73.91;101237.19;5072714;28;45929;-75
2022/01/02 07:55:18;;;;;;;;;15.00;14.00;;;;;11.69;73.39;101258.16;5070541;28;45384;-75
2022/01/02 07:57:44;;;;;;;;;74.25;56.75;;;;;11.61;72.93;101241.63;5074522;28;45315;-75
2022/01/02 08:00:10;;;;;;;;;25.50;18.75;;;;;11.69;73.72;101257.31;5072779;28;45471;-74
2022/01/02 08:02:36;;;;;;;;;16.25;16.00;;;;;11.70;73.42;101254.59;5071127;28;45547;-74
2022/01/02 08:05:01;;;;;;;;;16.50;14.75;;;;;11.59;73.83;101252.28;5072800;28;45301;-74
2022/01/02 08:07:27;;;;;;;;;17.25;14.00;;;;;11.65;73.95;101251.25;5074095;28;45480;-74
2022/01/02 08:09:52;;;;;;;;;15.50;15.00;;;;;11.54;73.85;101234.78;5072913;28;45368;-74
2022/01/02 08:12:17;;;;;;;;;15.25;14.50;;;;;11.71;73.87;101259.00;5074583;28;46101;-74
2022/01/02 08:14:43;;;;;;;;;18.00;15.00;;;;;11.73;73.35;101259.81;5072878;28;45507;-74
2022/01/02 08:17:08;;;;;;;;;14.75;12.00;;;;;11.73;73.69;101251.84;5067016;28;45518;-74
2022/01/02 08:19:33;;;;;;;;;17.00;14.25;;;;;11.76;73.92;101256.19;5072643;28;45469;-73
2022/01/02 08:21:59;;;;;;;;;13.00;10.25;;;;;11.72;73.11;101238.66;5054378;28;46994;-73
2022/01/02 08:24:24;;;;;;;;;11.75;11.75;;;;;11.67;73.22;101227.31;5074617;28;45450;-74
2022/01/02 08:26:49;;;;;;;;;19.00;14.25;;;;;11.79;73.50;101251.69;5061481;28;45423;-74
2022/01/02 08:29:14;;;;;;;;;13.25;12.50;;;;;11.72;73.74;101236.88;5071829;28;45460;-73
2022/01/02 08:31:40;;;;;;;;;14.00;14.00;;;;;11.55;73.95;101223.25;5072095;28;45514;-74
2022/01/02 08:34:05;;;;;;;;;16.00;12.25;;;;;11.77;73.73;101258.81;5072362;28;45446;-74
2022/01/02 08:36:31;;;;;;;;;15.50;15.00;;;;;11.68;73.48;101245.84;5074151;28;45402;-73
2022/01/02 08:38:56;;;;;;;;;11.75;11.25;;;;;11.72;73.39;101249.25;5053967;28;45539;-73
2022/01/02 08:41:22;;;;;;;;;13.00;13.00;;;;;11.56;73.98;101225.00;5073991;27;46103;-74
2022/01/02 08:43:47;;;;;;;;;14.75;13.00;;;;;11.78;73.78;101257.88;5072395;28;45418;-74
2022/01/02 08:46:12;;;;;;;;;14.75;13.75;;;;;11.79;73.63;101249.03;5071940;28;45400;-74
2022/01/02 08:48:38;;;;;;;;;15.25;13.50;;;;;11.72;73.52;101238.66;5074187;28;45525;-73
2022/01/02 08:51:03;;;;;;;;;16.00;13.25;;;;;11.81;73.60;101252.47;5072682;28;45644;-73
2022/01/02 08:53:31;;;;;;;;;13.75;9.25;;;;;11.71;73.82;101248.41;5073777;28;45446;-73
2022/01/02 08:55:56;;;;;;;;;19.00;14.50;;;;;11.81;73.79;101260.44;5076741;27;45380;-73
2022/01/02 08:58:22;;;;;;;;;13.25;10.50;;;;;11.75;74.09;101242.06;5063907;28;45453;-73
2022/01/02 09:00:47;;;;;;;;;15.00;12.50;;;;;11.88;74.33;101258.50;5076626;28;45558;-72
2022/01/02 09:03:12;;;;;;;;;13.50;9.25;;;;;11.99;73.94;101271.44;5076098;27;45405;-73
2022/01/02 09:05:38;;;;;;;;;12.50;9.75;;;;;12.01;73.96;101269.59;5061417;28;45728;-72
2022/01/02 09:08:03;;;;;;;;;18.50;11.25;;;;;11.89;74.44;101249.63;5076183;28;45354;-72
2022/01/02 09:10:29;;;;;;;;;14.00;9.25;;;;;12.05;73.68;101274.75;5075495;27;46206;-72
2022/01/02 09:12:54;;;;;;;;;16.00;12.25;;;;;12.00;74.17;101254.59;5075934;27;45230;-72
2022/01/02 09:15:20;;;;;;;;;12.50;12.50;;;;;12.15;74.06;101275.34;5077016;28;46807;-72
2022/01/02 09:17:45;;;;;;;;;17.75;13.50;;;;;12.15;74.14;101259.41;5064512;28;45654;-72
2022/01/02 09:20:13;;;;;;;;;16.25;13.75;;;;;12.55;73.58;101279.31;5074148;27;46131;-73
2022/01/02 09:22:39;;;;;;;;;15.25;11.50;;;;;12.71;72.83;101264.59;5075734;28;45466;-72
2022/01/02 09:25:07;;;;;;;;;13.75;11.50;;;;;12.70;72.86;101281.44;5075288;28;45408;-73
2022/01/02 09:27:32;;;;;;;;;7.25;7.00;;;;;12.62;72.70;101270.22;5077358;28;45676;-72
2022/01/02 09:29:58;;;;;;;;;11.50;11.25;;;;;12.82;72.95;101308.50;5073698;27;45521;-73
2022/01/02 09:32:24;;;;;;;;;12.75;11.50;;;;;12.63;72.79;101269.31;5072894;28;45447;-73
2022/01/02 09:34:49;;;;;;;;;15.75;10.25;;;;;12.57;73.06;101266.84;5075054;27;45585;-73
2022/01/02 09:37:14;;;;;;;;;17.25;10.50;;;;;12.71;72.89;101272.56;5055317;28;45592;-73
2022/01/02 09:39:40;;;;;;;;;9.75;8.50;;;;;12.65;73.01;101269.25;5077294;27;46217;-72
2022/01/02 09:42:05;;;;;;;;;14.75;13.00;;;;;12.71;73.32;101263.75;5074836;28;45455;-73
2022/01/02 09:44:32;;;;;;;;;12.00;10.75;;;;;12.89;73.29;101296.75;5056421;28;45415;-74
2022/01/02 09:46:58;;;;;;;;;10.25;10.25;;;;;12.94;72.72;101293.03;5073175;28;45420;-73
2022/01/02 09:49:23;;;;;;;;;16.75;9.50;;;;;13.22;72.33;101291.16;5074490;28;46234;-74
2022/01/02 09:51:50;;;;;;;;;16.00;12.25;;;;;13.17;72.33;101291.31;5076217;28;45312;-73
2022/01/02 09:54:15;;;;;;;;;9.75;9.75;;;;;13.15;72.26;101296.69;5076101;27;45369;-74
2022/01/02 09:56:41;;;;;;;;;8.00;8.00;;;;;13.09;72.61;101301.38;5074701;28;45582;-74
2022/01/02 09:59:06;;;;;;;;;11.50;7.75;;;;;13.13;72.41;101300.31;5072620;27;45428;-73
2022/01/02 10:01:32;;;;;;;;;11.75;9.50;;;;;13.33;72.45;101300.50;5075002;27;49510;-73
2022/01/02 10:03:59;;;;;;;;;13.75;10.25;;;;;13.31;72.88;101296.16;5054951;28;45532;-74
2022/01/02 10:06:38;;;;;;;;;14.75;12.50;;;;;13.35;72.69;101311.06;5075783;27;46583;-75
2022/01/02 10:09:08;;;;;;;;;14.25;9.75;;;;;13.30;72.88;101313.06;5074417;28;45478;-74
2022/01/02 10:11:35;;;;;;;;;11.00;9.00;;;;;13.29;73.31;101324.59;5075265;28;45692;-75
2022/01/02 10:14:02;;;;;;;;;14.25;9.50;;;;;13.17;73.71;101312.56;5078863;27;45617;-75
2022/01/02 10:16:34;;;;;;;;;15.50;8.00;;;;;13.25;73.84;101328.25;5088956;27;45467;-74
2022/01/02 10:19:28;;;;;;;;;74.50;60.75;;;;;13.23;74.23;101330.09;5085877;28;46399;-74
2022/01/02 10:22:05;;;;;;;;;11.75;8.25;;;;;13.23;74.63;101324.78;5074082;28;45345;-74
2022/01/02 10:24:37;;;;;;;;;12.50;8.75;;;;;13.23;74.42;101325.63;5075455;27;45521;-74
2022/01/02 10:27:05;;;;;;;;;12.75;10.25;;;;;13.23;74.75;101325.63;5059029;28;45390;-74
2022/01/02 10:29:46;;;;;;;;;15.50;11.25;;;;;12.98;76.44;101300.88;5060052;27;46415;-74
2022/01/02 10:32:26;;;;;;;;;9.50;9.00;;;;;13.22;76.28;101334.53;5073825;27;45515;-74
2022/01/02 10:35:05;;;;;;;;;12.25;7.00;;;;;13.22;76.46;101323.06;5066756;28;45551;-73
2022/01/02 10:37:31;;;;;;;;;13.50;9.00;;;;;13.06;76.68;101307.66;5072694;27;45327;-73
2022/01/02 10:39:56;;;;;;;;;12.50;9.75;;;;;13.22;76.80;101334.53;5080718;27;46211;-73
2022/01/02 10:42:22;;;;;;;;;12.50;8.00;;;;;13.14;76.33;101326.84;5075624;28;45532;-73
2022/01/02 10:44:47;;;;;;;;;15.75;12.25;;;;;13.15;76.44;101323.28;5074007;27;45348;-73
2022/01/02 10:47:21;;;;;;;;;21.25;16.75;;;;;13.18;75.82;101330.28;5068031;27;46917;-73
2022/01/02 10:49:50;;;;;;;;;20.00;16.75;;;;;13.26;75.78;101343.31;5074292;28;45374;-73
2022/01/02 10:52:20;;;;;;;;;10.50;10.00;;;;;13.29;75.89;101329.91;5074070;28;45583;-73
2022/01/02 10:54:45;;;;;;;;;14.25;9.75;;;;;12.97;76.18;101278.78;5075516;27;45458;-73
2022/01/02 10:57:12;;;;;;;;;8.75;7.50;;;;;13.35;75.70;101319.94;5074470;28;45300;-73
2022/01/02 10:59:39;;;;;;;;;5.50;5.50;;;;;13.19;74.98;101306.28;5072384;27;45668;-73
2022/01/02 11:02:05;;;;;;;;;14.25;14.25;;;;;13.27;74.95;101313.16;5074222;27;45393;-73
2022/01/02 11:04:32;;;;;;;;;12.50;9.00;;;;;13.25;75.45;101307.88;5067003;28;45818;-73
2022/01/02 11:07:00;;;;;;;;;11.00;8.75;;;;;13.30;75.44;101313.06;5074349;28;45369;-73
2022/01/02 11:09:26;;;;;;;;;9.00;9.00;;;;;13.44;75.56;101329.34;5076719;27;46113;-73
2022/01/02 11:11:51;;;;;;;;;14.25;13.50;;;;;13.46;75.52;101330.16;5069849;27;45391;-73
2022/01/02 11:14:18;;;;;;;;;10.50;10.00;;;;;13.43;75.13;101332.94;5076382;27;45479;-72
2022/01/02 11:16:44;;;;;;;;;9.75;9.50;;;;;13.29;74.83;101305.97;5071816;28;45443;-73
2022/01/02 11:19:11;;;;;;;;;4.25;4.25;;;;;13.40;75.01;101317.09;5073515;28;46109;-72